Ana Sayfa
METAR-TAF:

METAR-TAF

Havaalanları :

Brüksel Havalimanı

Brüksel, Belçika

Enlem: 50-54N, Boylam: 004-32E, yükseklik: 55 m

Güncel hava durumu gözlemi

Rapor saat 14:50 UTC de 30 dakika önce yapıldı.
Rüzgar batı/güneybatıdan 5 kt, güney/güneybatı ve batı/kuzeybatı arasında değişken
Sıcaklık 19°C
Nem 32%
Basınç 1033 hPa
Görüş mesafesi 10 km veya daha fazla
1500 m altında bulut yok ve kümülonimbus yok

METAR: EBBR 261450Z 24005KT 210V290 CAVOK 19/02 Q1033 NOSIG

Saat: 17:20 (15:20 UTC)

Tahmin

Rapor saat 11:20 UTC de 4 saat ve 0 dakika önce yapıldı.
Ayın 26'si saat 12 UTC'den ayın 27'si saat 18 UTC'ye kadar geçerli Tahmin
Rüzgar güney/güneybatıdan 4 kt
Görüş mesafesi 10 km veya daha fazla
1500 m altında bulut yok ve kümülonimbus yok

TAF: EBBR 261120Z 2612/2718 20004KT CAVOK

4.000'den fazla havaalanı için hava durumu gözlemleri ve tahminleri (METAR ve TAF raporları).

Kullanılabilir istasyonlar harita üzerinde sarı ve kırmızı noktalarla gösterilir.

İstasyonun adını görmek için fareyi noktanın üzerinde gezdirin.

Sonrasında hava gözlem ve tahminlerini görmek için tıklayın.

Haritayı değiştirmek için: yaklaştırmak için siyah artı işaretli yeşil düğmeye ve uzaklaştırmak için de eksi işaretli düğmeye hızla tıklayın; bitişik haritalar için yeşil okları kullanın.


METAR-TAF: